Time;durP1;ratioP1;P1;durP2;ratioP2;P2;SDS_P1;SDS_P2;PMS_P1;PMS_P2;Temp;Humidity;BMP_temperature;BMP_pressure;BME280_temperature;BME280_humidity;BME280_pressure;Samples;Min_cycle;Max_cycle;Signal;HPM_P1;HPM_P2
2022/07/26 00:00:42;;;;;;;;;;;;;;;;;;4993844;28;19921;-58
2022/07/26 00:03:08;;;;;;;;;;;;;;;;;;4982324;28;20414;-60
2022/07/26 00:05:36;;;;;;;;;;;;;;;;;;4974694;28;19968;-61
2022/07/26 00:08:10;;;;;;;;;;;;;;;;;;4988196;28;20169;-59
2022/07/26 00:10:35;;;;;;;;;;;;;;;;;;4985665;28;19921;-59
2022/07/26 00:13:00;;;;;;;;;;;;;;;;;;4991928;28;20331;-59
2022/07/26 00:15:26;;;;;;;;;;;;;;;;;;4968887;28;20393;-59
2022/07/26 00:17:51;;;;;;;;;;;;;;;;;;4990692;28;20489;-58
2022/07/26 00:20:16;;;;;;;;;;;;;;;;;;4984335;28;19926;-60
2022/07/26 00:22:41;;;;;;;;;;;;;;;;;;4987290;28;19927;-58
2022/07/26 00:25:07;;;;;;;;;;;;;;;;;;4975161;28;19953;-59
2022/07/26 00:27:35;;;;;;;;;;;;;;;;;;4987751;28;19928;-59
2022/07/26 00:30:00;;;;;;;;;;;;;;;;;;4991470;28;19918;-58
2022/07/26 00:32:25;;;;;;;;;;;;;;;;;;4986681;28;19925;-58
2022/07/26 00:34:50;;;;;;;;;;;;;;;;;;4988828;28;19918;-59
2022/07/26 00:37:15;;;;;;;;;;;;;;;;;;4995210;28;20020;-59
2022/07/26 00:39:42;;;;;;;;;;;;;;;;;;4991012;28;20430;-60
2022/07/26 00:42:07;;;;;;;;;;;;;;;;;;4995818;28;19942;-59
2022/07/26 00:44:33;;;;;;;;;;;;;;;;;;4990071;28;19926;-60
2022/07/26 00:46:58;;;;;;;;;;;;;;;;;;4989083;28;19921;-59
2022/07/26 00:49:23;;;;;;;;;;;;;;;;;;4993156;28;19917;-60
2022/07/26 00:51:48;;;;;;;;;;;;;;;;;;4989594;28;19921;-59
2022/07/26 00:54:13;;;;;;;;;;;;;;;;;;4993787;28;20346;-59
2022/07/26 00:56:39;;;;;;;;;;;;;;;;;;4989662;28;20425;-61
2022/07/26 00:59:04;;;;;;;;;;;;;;;;;;4985998;28;20379;-59
2022/07/26 01:01:29;;;;;;;;;;;;;;;;;;4992576;28;20228;-59
2022/07/26 01:03:54;;;;;;;;;;;;;;;;;;4989650;28;20008;-60
2022/07/26 01:06:19;;;;;;;;;;;;;;;;;;4991480;28;19922;-59
2022/07/26 01:08:45;;;;;;;;;;;;;;;;;;4990586;28;19925;-59
2022/07/26 01:11:10;;;;;;;;;;;;;;;;;;4988113;28;20457;-60
2022/07/26 01:13:35;;;;;;;;;;;;;;;;;;4993376;28;19937;-58
2022/07/26 01:16:00;;;;;;;;;;;;;;;;;;4988829;28;19917;-59
2022/07/26 01:18:25;;;;;;;;;;;;;;;;;;4994667;28;19925;-60
2022/07/26 01:20:51;;;;;;;;;;;;;;;;;;4989109;28;20343;-58
2022/07/26 01:23:16;;;;;;;;;;;;;;;;;;4988837;28;19996;-59
2022/07/26 01:25:41;;;;;;;;;;;;;;;;;;4992288;28;19931;-58
2022/07/26 01:28:06;;;;;;;;;;;;;;;;;;4978006;28;19922;-57
2022/07/26 01:30:31;;;;;;;;;;;;;;;;;;4992523;28;19918;-58
2022/07/26 01:32:57;;;;;;;;;;;;;;;;;;4986456;28;19928;-58
2022/07/26 01:35:22;;;;;;;;;;;;;;;;;;4984945;28;19925;-59
2022/07/26 01:37:47;;;;;;;;;;;;;;;;;;4993580;28;20020;-60
2022/07/26 01:40:13;;;;;;;;;;;;;;;;;;4985746;28;19948;-62
2022/07/26 01:42:39;;;;;;;;;;;;;;;;;;4991672;28;19980;-63
2022/07/26 01:45:05;;;;;;;;;;;;;;;;;;4984903;28;19929;-63
2022/07/26 01:47:30;;;;;;;;;;;;;;;;;;4985737;28;19922;-64
2022/07/26 01:49:55;;;;;;;;;;;;;;;;;;4992778;28;19957;-64
2022/07/26 01:52:20;;;;;;;;;;;;;;;;;;4990916;28;20314;-64
2022/07/26 01:54:46;;;;;;;;;;;;;;;;;;4993109;28;19923;-63
2022/07/26 01:57:11;;;;;;;;;;;;;;;;;;4989471;28;19924;-63
2022/07/26 01:59:36;;;;;;;;;;;;;;;;;;4986261;28;20250;-64
2022/07/26 02:02:01;;;;;;;;;;;;;;;;;;4981147;28;19920;-63
2022/07/26 02:07:10;;;;;;;;;;;;;;;;;;4986880;28;19922;-63
2022/07/26 02:09:36;;;;;;;;;;;;;;;;;;4991714;28;19940;-62
2022/07/26 02:12:01;;;;;;;;;;;;;;;;;;4985963;28;20400;-63
2022/07/26 02:14:26;;;;;;;;;;;;;;;;;;4992536;28;20367;-63
2022/07/26 02:16:58;;;;;;;;;;;;;;;;;;4985862;28;19922;-63
2022/07/26 02:19:23;;;;;;;;;;;;;;;;;;4987993;28;20437;-63
2022/07/26 02:21:48;;;;;;;;;;;;;;;;;;4993084;28;19949;-63
2022/07/26 02:24:14;;;;;;;;;;;;;;;;;;4988821;28;19973;-63
2022/07/26 02:26:39;;;;;;;;;;;;;;;;;;4994151;28;21134;-62
2022/07/26 02:29:04;;;;;;;;;;;;;;;;;;4987711;28;20461;-62
2022/07/26 02:31:29;;;;;;;;;;;;;;;;;;4986013;28;20351;-62
2022/07/26 02:33:55;;;;;;;;;;;;;;;;;;4993811;28;19918;-64
2022/07/26 02:36:20;;;;;;;;;;;;;;;;;;4984540;28;20343;-63
2022/07/26 02:38:45;;;;;;;;;;;;;;;;;;4989219;28;20360;-63
2022/07/26 02:41:10;;;;;;;;;;;;;;;;;;4984334;28;19996;-63
2022/07/26 02:43:35;;;;;;;;;;;;;;;;;;4984337;28;19917;-63
2022/07/26 02:46:01;;;;;;;;;;;;;;;;;;4991915;28;20258;-63
2022/07/26 02:48:26;;;;;;;;;;;;;;;;;;4985764;28;20067;-63
2022/07/26 02:50:51;;;;;;;;;;;;;;;;;;4991209;28;19921;-61
2022/07/26 02:53:16;;;;;;;;;;;;;;;;;;4984883;28;19941;-63
2022/07/26 02:55:41;;;;;;;;;;;;;;;;;;4986515;28;19917;-63
2022/07/26 02:58:06;;;;;;;;;;;;;;;;;;4993558;28;19924;-63
2022/07/26 03:00:32;;;;;;;;;;;;;;;;;;4986389;28;20008;-63
2022/07/26 03:02:59;;;;;;;;;;;;;;;;;;4993759;28;19921;-63
2022/07/26 03:05:24;;;;;;;;;;;;;;;;;;4969581;28;19921;-62
2022/07/26 03:07:50;;;;;;;;;;;;;;;;;;4985865;28;20020;-61
2022/07/26 03:10:15;;;;;;;;;;;;;;;;;;4978653;28;19921;-62
2022/07/26 03:12:40;;;;;;;;;;;;;;;;;;4985310;28;19957;-62
2022/07/26 03:15:05;;;;;;;;;;;;;;;;;;4991643;28;20382;-63
2022/07/26 03:17:30;;;;;;;;;;;;;;;;;;4982710;28;19925;-63
2022/07/26 03:19:56;;;;;;;;;;;;;;;;;;4988699;28;19917;-62
2022/07/26 03:22:21;;;;;;;;;;;;;;;;;;4990177;28;20000;-65
2022/07/26 03:24:46;;;;;;;;;;;;;;;;;;4986459;28;19977;-62
2022/07/26 03:27:11;;;;;;;;;;;;;;;;;;4990943;28;19943;-62
2022/07/26 03:29:36;;;;;;;;;;;;;;;;;;4988278;28;19917;-60
2022/07/26 03:32:02;;;;;;;;;;;;;;;;;;4988258;28;19913;-62
2022/07/26 03:34:27;;;;;;;;;;;;;;;;;;4992274;28;19917;-63
2022/07/26 03:36:52;;;;;;;;;;;;;;;;;;4989714;28;19971;-62
2022/07/26 03:39:17;;;;;;;;;;;;;;;;;;4992499;28;19918;-63
2022/07/26 03:41:42;;;;;;;;;;;;;;;;;;4987437;28;20303;-62
2022/07/26 03:44:08;;;;;;;;;;;;;;;;;;4985798;28;20605;-62
2022/07/26 03:46:33;;;;;;;;;;;;;;;;;;4993848;28;19979;-63
2022/07/26 03:48:58;;;;;;;;;;;;;;;;;;4987352;28;20302;-63
2022/07/26 03:51:23;;;;;;;;;;;;;;;;;;4990459;28;20040;-64
2022/07/26 03:53:49;;;;;;;;;;;;;;;;;;4987374;28;19922;-61
2022/07/26 03:56:32;;;;;;;;;;;;;;;;;;4985088;28;19918;-60
2022/07/26 03:58:58;;;;;;;;;;;;;;;;;;4992121;28;19967;-62
2022/07/26 04:01:23;;;;;;;;;;;;;;;;;;4985594;28;19921;-63
2022/07/26 04:03:48;;;;;;;;;;;;;;;;;;4994196;28;19922;-62
2022/07/26 04:06:13;;;;;;;;;;;;;;;;;;4988106;28;20040;-62
2022/07/26 04:08:38;;;;;;;;;;;;;;;;;;4989221;28;19929;-62
2022/07/26 04:11:04;;;;;;;;;;;;;;;;;;4995084;28;19917;-62
2022/07/26 04:13:29;;;;;;;;;;;;;;;;;;4991230;28;19937;-62
2022/07/26 04:15:54;;;;;;;;;;;;;;;;;;4995895;28;19948;-62
2022/07/26 04:18:19;;;;;;;;;;;;;;;;;;4988129;28;19929;-62
2022/07/26 04:20:45;;;;;;;;;;;;;;;;;;4991872;28;19917;-62
2022/07/26 04:23:10;;;;;;;;;;;;;;;;;;4995023;28;20393;-62
2022/07/26 04:25:35;;;;;;;;;;;;;;;;;;4990122;28;20294;-62
2022/07/26 04:28:00;;;;;;;;;;;;;;;;;;4995378;28;20596;-61
2022/07/26 04:30:25;;;;;;;;;;;;;;;;;;4988654;28;20274;-62
2022/07/26 04:32:51;;;;;;;;;;;;;;;;;;4988599;28;21228;-62
2022/07/26 04:35:16;;;;;;;;;;;;;;;;;;4995216;28;19924;-62
2022/07/26 04:37:41;;;;;;;;;;;;;;;;;;4985856;28;19952;-62
2022/07/26 04:40:07;;;;;;;;;;;;;;;;;;4994337;28;19918;-62
2022/07/26 04:42:32;;;;;;;;;;;;;;;;;;4989399;28;19918;-63
2022/07/26 04:44:57;;;;;;;;;;;;;;;;;;4988261;28;19940;-63
2022/07/26 04:47:23;;;;;;;;;;;;;;;;;;4994328;28;19918;-61
2022/07/26 04:49:48;;;;;;;;;;;;;;;;;;4969783;28;19917;-62
2022/07/26 04:52:13;;;;;;;;;;;;;;;;;;4994290;28;20379;-62
2022/07/26 04:54:38;;;;;;;;;;;;;;;;;;4988310;28;19921;-61
2022/07/26 04:57:03;;;;;;;;;;;;;;;;;;4986852;28;19918;-62
2022/07/26 04:59:29;;;;;;;;;;;;;;;;;;4990733;28;19917;-62
2022/07/26 05:01:54;;;;;;;;;;;;;;;;;;4987816;28;20007;-61
2022/07/26 05:04:19;;;;;;;;;;;;;;;;;;4995834;28;19961;-63
2022/07/26 05:06:47;;;;;;;;;;;;;;;;;;4985416;28;20008;-63
2022/07/26 05:09:12;;;;;;;;;;;;;;;;;;4986668;28;19922;-63
2022/07/26 05:11:37;;;;;;;;;;;;;;;;;;4993830;28;19925;-62
2022/07/26 05:14:03;;;;;;;;;;;;;;;;;;4986799;28;20337;-62
2022/07/26 05:16:28;;;;;;;;;;;;;;;;;;4995601;28;20382;-62
2022/07/26 05:18:53;;;;;;;;;;;;;;;;;;4987839;28;19917;-62
2022/07/26 05:21:18;;;;;;;;;;;;;;;;;;4988105;28;19921;-61
2022/07/26 05:23:44;;;;;;;;;;;;;;;;;;4994482;28;19922;-62
2022/07/26 05:26:09;;;;;;;;;;;;;;;;;;4988121;28;19961;-62
2022/07/26 05:28:37;;;;;;;;;;;;;;;;;;4994894;28;20522;-62
2022/07/26 05:31:02;;;;;;;;;;;;;;;;;;4995097;28;19924;-61
2022/07/26 05:33:28;;;;;;;;;;;;;;;;;;4992383;28;19925;-62
2022/07/26 05:35:53;;;;;;;;;;;;;;;;;;4992145;28;19925;-62
2022/07/26 05:38:19;;;;;;;;;;;;;;;;;;4991320;28;19924;-62
2022/07/26 05:40:44;;;;;;;;;;;;;;;;;;4993836;28;19996;-61
2022/07/26 05:43:09;;;;;;;;;;;;;;;;;;4992106;28;20408;-61
2022/07/26 05:45:35;;;;;;;;;;;;;;;;;;4967327;28;19926;-61
2022/07/26 05:48:00;;;;;;;;;;;;;;;;;;4988314;28;19919;-61
2022/07/26 05:50:25;;;;;;;;;;;;;;;;;;4992118;28;19914;-61
2022/07/26 05:52:50;;;;;;;;;;;;;;;;;;4993297;28;20028;-62
2022/07/26 05:55:16;;;;;;;;;;;;;;;;;;4991056;28;20255;-62
2022/07/26 05:57:41;;;;;;;;;;;;;;;;;;4991525;28;19956;-62
2022/07/26 06:00:06;;;;;;;;;;;;;;;;;;4991644;28;19937;-62
2022/07/26 06:02:39;;;;;;;;;;;;;;;;;;4988002;28;19960;-62
2022/07/26 06:05:05;;;;;;;;;;;;;;;;;;4993128;28;19944;-62
2022/07/26 06:07:30;;;;;;;;;;;;;;;;;;4992421;28;20469;-63
2022/07/26 06:09:55;;;;;;;;;;;;;;;;;;4993506;28;19925;-62
2022/07/26 06:12:20;;;;;;;;;;;;;;;;;;4990494;28;19928;-62
2022/07/26 06:14:45;;;;;;;;;;;;;;;;;;4991401;28;20526;-63
2022/07/26 06:17:11;;;;;;;;;;;;;;;;;;4989546;28;20417;-62
2022/07/26 06:19:36;;;;;;;;;;;;;;;;;;4991259;28;19940;-63
2022/07/26 06:22:01;;;;;;;;;;;;;;;;;;4992584;28;19932;-63
2022/07/26 06:24:27;;;;;;;;;;;;;;;;;;4991835;28;20253;-62
2022/07/26 06:26:54;;;;;;;;;;;;;;;;;;4991738;28;19917;-62
2022/07/26 06:29:19;;;;;;;;;;;;;;;;;;4993354;28;19959;-63
2022/07/26 06:31:44;;;;;;;;;;;;;;;;;;4990486;28;20294;-61
2022/07/26 06:34:09;;;;;;;;;;;;;;;;;;4991226;28;19918;-62
2022/07/26 06:36:35;;;;;;;;;;;;;;;;;;4991601;28;19925;-61
2022/07/26 06:39:00;;;;;;;;;;;;;;;;;;4990705;28;19921;-62
2022/07/26 06:41:25;;;;;;;;;;;;;;;;;;4992132;28;19924;-62
2022/07/26 06:43:50;;;;;;;;;;;;;;;;;;4989266;28;20052;-62
2022/07/26 06:46:15;;;;;;;;;;;;;;;;;;4991698;28;19921;-62
2022/07/26 06:48:41;;;;;;;;;;;;;;;;;;4991931;28;19940;-64
2022/07/26 06:51:08;;;;;;;;;;;;;;;;;;4992343;28;19918;-62
2022/07/26 06:53:34;;;;;;;;;;;;;;;;;;4990709;28;20406;-62
2022/07/26 06:55:59;;;;;;;;;;;;;;;;;;4992662;28;20543;-62
2022/07/26 06:58:24;;;;;;;;;;;;;;;;;;4992339;28;20322;-62
2022/07/26 07:00:49;;;;;;;;;;;;;;;;;;4991838;28;20264;-62
2022/07/26 07:03:15;;;;;;;;;;;;;;;;;;4990702;28;19918;-63
2022/07/26 07:05:41;;;;;;;;;;;;;;;;;;4990823;28;19918;-62
2022/07/26 07:08:06;;;;;;;;;;;;;;;;;;4992314;28;19921;-61
2022/07/26 07:10:31;;;;;;;;;;;;;;;;;;4993157;28;20659;-62
2022/07/26 07:12:56;;;;;;;;;;;;;;;;;;4991633;28;19917;-62
2022/07/26 07:15:22;;;;;;;;;;;;;;;;;;4992115;28;19925;-62
2022/07/26 07:17:47;;;;;;;;;;;;;;;;;;4992530;28;19918;-62
2022/07/26 07:20:12;;;;;;;;;;;;;;;;;;4993985;28;19957;-61
2022/07/26 07:22:37;;;;;;;;;;;;;;;;;;4992500;28;19922;-62
2022/07/26 07:25:02;;;;;;;;;;;;;;;;;;4990749;28;19921;-62
2022/07/26 07:27:28;;;;;;;;;;;;;;;;;;4989158;28;20363;-62
2022/07/26 07:29:53;;;;;;;;;;;;;;;;;;4990390;28;19917;-62
2022/07/26 07:32:18;;;;;;;;;;;;;;;;;;4991209;28;20394;-62
2022/07/26 07:34:44;;;;;;;;;;;;;;;;;;4989789;28;19918;-62
2022/07/26 07:37:11;;;;;;;;;;;;;;;;;;4990752;28;19917;-62
2022/07/26 07:39:36;;;;;;;;;;;;;;;;;;4990700;28;19918;-62
2022/07/26 07:42:01;;;;;;;;;;;;;;;;;;4993973;28;19968;-62
2022/07/26 07:44:26;;;;;;;;;;;;;;;;;;4994838;28;19924;-63
2022/07/26 07:46:51;;;;;;;;;;;;;;;;;;4994481;28;19921;-62
2022/07/26 07:49:17;;;;;;;;;;;;;;;;;;4993006;28;19968;-62
2022/07/26 07:51:42;;;;;;;;;;;;;;;;;;4995264;28;19980;-62
2022/07/26 07:54:07;;;;;;;;;;;;;;;;;;4995276;28;19917;-63
2022/07/26 07:56:33;;;;;;;;;;;;;;;;;;4992574;28;19975;-62
2022/07/26 07:58:58;;;;;;;;;;;;;;;;;;4994577;28;19918;-62
2022/07/26 08:01:23;;;;;;;;;;;;;;;;;;4993174;28;19922;-61
2022/07/26 08:03:48;;;;;;;;;;;;;;;;;;4991680;28;20209;-60
2022/07/26 08:06:13;;;;;;;;;;;;;;;;;;4993160;28;19917;-61
2022/07/26 08:08:39;;;;;;;;;;;;;;;;;;4994475;28;20306;-63
2022/07/26 08:11:04;;;;;;;;;;;;;;;;;;4994704;28;19941;-61
2022/07/26 08:13:29;;;;;;;;;;;;;;;;;;4992601;28;19925;-62
2022/07/26 08:15:54;;;;;;;;;;;;;;;;;;4994718;28;19998;-62
2022/07/26 08:18:19;;;;;;;;;;;;;;;;;;4992240;28;20078;-62
2022/07/26 08:20:45;;;;;;;;;;;;;;;;;;4994279;28;20388;-62
2022/07/26 08:23:10;;;;;;;;;;;;;;;;;;4931646;28;1779011;-62
2022/07/26 08:25:35;;;;;;;;;;;;;;;;;;4994386;28;20289;-62
2022/07/26 08:28:00;;;;;;;;;;;;;;;;;;4992727;28;19926;-62
2022/07/26 08:30:25;;;;;;;;;;;;;;;;;;4994443;28;19917;-61
2022/07/26 08:32:51;;;;;;;;;;;;;;;;;;4994291;28;20335;-62
2022/07/26 08:35:16;;;;;;;;;;;;;;;;;;4995082;28;19953;-62
2022/07/26 08:37:41;;;;;;;;;;;;;;;;;;4996045;28;20013;-62
2022/07/26 08:40:06;;;;;;;;;;;;;;;;;;4993749;28;19925;-62
2022/07/26 08:42:32;;;;;;;;;;;;;;;;;;4992043;28;19917;-62
2022/07/26 08:44:57;;;;;;;;;;;;;;;;;;4988060;28;19922;-62
2022/07/26 08:47:22;;;;;;;;;;;;;;;;;;4994596;28;19924;-61
2022/07/26 08:49:47;;;;;;;;;;;;;;;;;;4993165;28;19918;-61
2022/07/26 08:52:12;;;;;;;;;;;;;;;;;;4992856;28;19922;-62
2022/07/26 08:54:38;;;;;;;;;;;;;;;;;;4992575;28;20781;-61
2022/07/26 08:57:03;;;;;;;;;;;;;;;;;;4993569;28;19985;-61
2022/07/26 08:59:29;;;;;;;;;;;;;;;;;;4988657;28;20359;-61
2022/07/26 09:01:54;;;;;;;;;;;;;;;;;;4997604;28;19980;-61
2022/07/26 09:04:19;;;;;;;;;;;;;;;;;;4993769;28;20901;-61
2022/07/26 09:06:45;;;;;;;;;;;;;;;;;;4995505;28;19922;-61
2022/07/26 09:09:11;;;;;;;;;;;;;;;;;;4994586;28;19972;-61
2022/07/26 09:11:36;;;;;;;;;;;;;;;;;;4995127;28;19924;-61
2022/07/26 09:14:01;;;;;;;;;;;;;;;;;;4993984;28;19997;-61
2022/07/26 09:16:27;;;;;;;;;;;;;;;;;;4995567;28;19925;-60
2022/07/26 09:18:56;;;;;;;;;;;;;;;;;;4983536;28;19933;-60
2022/07/26 09:21:21;;;;;;;;;;;;;;;;;;4995938;28;19922;-61
2022/07/26 09:23:46;;;;;;;;;;;;;;;;;;4993983;28;19921;-61
2022/07/26 09:26:11;;;;;;;;;;;;;;;;;;4976157;28;20004;-61
2022/07/26 09:28:37;;;;;;;;;;;;;;;;;;4993009;28;19928;-61
2022/07/26 09:31:02;;;;;;;;;;;;;;;;;;4991965;28;19937;-61
2022/07/26 09:33:27;;;;;;;;;;;;;;;;;;4993540;28;19952;-61
2022/07/26 09:35:52;;;;;;;;;;;;;;;;;;4996106;28;20028;-61
2022/07/26 09:38:17;;;;;;;;;;;;;;;;;;4994006;28;19928;-61
2022/07/26 09:40:43;;;;;;;;;;;;;;;;;;4993388;28;19918;-62
2022/07/26 09:43:15;;;;;;;;;;;;;;;;;;4991958;28;20335;-61
2022/07/26 09:45:40;;;;;;;;;;;;;;;;;;4993194;28;20820;-60
2022/07/26 09:48:05;;;;;;;;;;;;;;;;;;4994142;28;20375;-61
2022/07/26 09:50:31;;;;;;;;;;;;;;;;;;4992158;28;19922;-61
2022/07/26 09:52:56;;;;;;;;;;;;;;;;;;4994194;28;19918;-60
2022/07/26 09:55:21;;;;;;;;;;;;;;;;;;4994808;28;20371;-60
2022/07/26 09:57:46;;;;;;;;;;;;;;;;;;4992832;28;19913;-61
2022/07/26 10:00:11;;;;;;;;;;;;;;;;;;4993416;28;20196;-61
2022/07/26 10:02:37;;;;;;;;;;;;;;;;;;4989959;28;19917;-61
2022/07/26 10:05:02;;;;;;;;;;;;;;;;;;4993667;28;19925;-61
2022/07/26 10:07:27;;;;;;;;;;;;;;;;;;4993720;28;20337;-60
2022/07/26 10:09:52;;;;;;;;;;;;;;;;;;4992678;28;21019;-61
2022/07/26 10:12:17;;;;;;;;;;;;;;;;;;4992661;28;20359;-60
2022/07/26 10:14:44;;;;;;;;;;;;;;;;;;4991981;28;19913;-60
2022/07/26 10:17:09;;;;;;;;;;;;;;;;;;4991936;28;19924;-61
2022/07/26 10:19:35;;;;;;;;;;;;;;;;;;4991713;28;20295;-60
2022/07/26 10:22:00;;;;;;;;;;;;;;;;;;4993392;28;19964;-62
2022/07/26 10:24:25;;;;;;;;;;;;;;;;;;4992823;28;20426;-60
2022/07/26 10:26:50;;;;;;;;;;;;;;;;;;4983784;28;19922;-60
2022/07/26 10:29:16;;;;;;;;;;;;;;;;;;4992753;28;19920;-60
2022/07/26 10:31:41;;;;;;;;;;;;;;;;;;4991100;28;19918;-60
2022/07/26 10:34:06;;;;;;;;;;;;;;;;;;4991392;28;19913;-61
2022/07/26 10:36:32;;;;;;;;;;;;;;;;;;4990797;28;20028;-60
2022/07/26 10:38:57;;;;;;;;;;;;;;;;;;4991176;28;19976;-61
2022/07/26 10:41:22;;;;;;;;;;;;;;;;;;4990444;28;20382;-61
2022/07/26 10:43:47;;;;;;;;;;;;;;;;;;4986360;28;19917;-61
2022/07/26 10:46:13;;;;;;;;;;;;;;;;;;4993108;28;19921;-62
2022/07/26 10:48:38;;;;;;;;;;;;;;;;;;4991122;28;19921;-61
2022/07/26 10:51:03;;;;;;;;;;;;;;;;;;4989298;28;19917;-61
2022/07/26 10:53:28;;;;;;;;;;;;;;;;;;4993158;28;19918;-61
2022/07/26 10:55:53;;;;;;;;;;;;;;;;;;4976171;28;20339;-61
2022/07/26 10:58:19;;;;;;;;;;;;;;;;;;4993100;28;19957;-61
2022/07/26 11:00:44;;;;;;;;;;;;;;;;;;4992279;28;19913;-61
2022/07/26 11:03:11;;;;;;;;;;;;;;;;;;4991986;28;19917;-61
2022/07/26 11:05:37;;;;;;;;;;;;;;;;;;4987761;28;20055;-61
2022/07/26 11:08:04;;;;;;;;;;;;;;;;;;4990283;28;19921;-61
2022/07/26 11:10:29;;;;;;;;;;;;;;;;;;4989140;28;19924;-61
2022/07/26 11:12:54;;;;;;;;;;;;;;;;;;4984452;28;19929;-61
2022/07/26 11:15:19;;;;;;;;;;;;;;;;;;4988828;28;20032;-61
2022/07/26 11:17:45;;;;;;;;;;;;;;;;;;4987990;28;20514;-61
2022/07/26 11:20:10;;;;;;;;;;;;;;;;;;4987737;28;19914;-62
2022/07/26 11:22:35;;;;;;;;;;;;;;;;;;4989122;28;19968;-61
2022/07/26 11:25:00;;;;;;;;;;;;;;;;;;4989991;28;19925;-62
2022/07/26 11:27:25;;;;;;;;;;;;;;;;;;4988832;28;19922;-62
2022/07/26 11:29:51;;;;;;;;;;;;;;;;;;4992974;28;19929;-61
2022/07/26 11:32:16;;;;;;;;;;;;;;;;;;4990817;28;20000;-61
2022/07/26 11:34:43;;;;;;;;;;;;;;;;;;4991030;28;19914;-61
2022/07/26 11:37:08;;;;;;;;;;;;;;;;;;4990738;28;20333;-61
2022/07/26 11:39:34;;;;;;;;;;;;;;;;;;4990792;28;20405;-62
2022/07/26 11:41:59;;;;;;;;;;;;;;;;;;4988857;28;20270;-62
2022/07/26 11:44:24;;;;;;;;;;;;;;;;;;4993367;28;19952;-61
2022/07/26 11:46:49;;;;;;;;;;;;;;;;;;4988710;28;20000;-62
2022/07/26 11:49:15;;;;;;;;;;;;;;;;;;4990794;28;20380;-61
2022/07/26 11:51:40;;;;;;;;;;;;;;;;;;4990783;28;20315;-60
2022/07/26 11:54:05;;;;;;;;;;;;;;;;;;4989119;28;19913;-61
2022/07/26 11:56:31;;;;;;;;;;;;;;;;;;4990899;28;19921;-61
2022/07/26 11:58:56;;;;;;;;;;;;;;;;;;4990597;28;19918;-62
2022/07/26 12:01:21;;;;;;;;;;;;;;;;;;4990075;28;19917;-62
2022/07/26 12:03:47;;;;;;;;;;;;;;;;;;4992668;28;20053;-62
2022/07/26 12:06:12;;;;;;;;;;;;;;;;;;4990999;28;20004;-62
2022/07/26 12:08:37;;;;;;;;;;;;;;;;;;4991014;28;19922;-62
2022/07/26 12:11:03;;;;;;;;;;;;;;;;;;4990378;28;19918;-62
2022/07/26 12:13:28;;;;;;;;;;;;;;;;;;4992404;28;19948;-63
2022/07/26 12:15:53;;;;;;;;;;;;;;;;;;4985861;28;19941;-62
2022/07/26 12:18:18;;;;;;;;;;;;;;;;;;4991405;28;19917;-61
2022/07/26 12:20:43;;;;;;;;;;;;;;;;;;4990600;28;20804;-61
2022/07/26 12:23:09;;;;;;;;;;;;;;;;;;4991888;28;19929;-62
2022/07/26 12:25:36;;;;;;;;;;;;;;;;;;4991988;28;19929;-62
2022/07/26 12:28:01;;;;;;;;;;;;;;;;;;4994033;28;19921;-62
2022/07/26 12:30:26;;;;;;;;;;;;;;;;;;4997143;28;20274;-62
2022/07/26 12:32:53;;;;;;;;;;;;;;;;;;4992697;28;19920;-62
2022/07/26 12:35:24;;;;;;;;;;;;;;;;;;4993938;28;19965;-62
2022/07/26 12:37:50;;;;;;;;;;;;;;;;;;4996663;28;19925;-62
2022/07/26 12:40:15;;;;;;;;;;;;;;;;;;4995892;28;19917;-63
2022/07/26 12:42:40;;;;;;;;;;;;;;;;;;4995579;28;20410;-63
2022/07/26 12:45:07;;;;;;;;;;;;;;;;;;4996667;28;19925;-61
2022/07/26 12:47:33;;;;;;;;;;;;;;;;;;4995859;28;19927;-62
2022/07/26 12:49:59;;;;;;;;;;;;;;;;;;4993497;28;19917;-63
2022/07/26 12:52:24;;;;;;;;;;;;;;;;;;4992801;28;19924;-63
2022/07/26 12:54:49;;;;;;;;;;;;;;;;;;4996919;28;19914;-63
2022/07/26 12:57:15;;;;;;;;;;;;;;;;;;4996610;28;20283;-62
2022/07/26 12:59:40;;;;;;;;;;;;;;;;;;4991961;28;20041;-61
2022/07/26 13:02:06;;;;;;;;;;;;;;;;;;4996924;28;19922;-62
2022/07/26 13:04:31;;;;;;;;;;;;;;;;;;4992657;28;19918;-62
2022/07/26 13:06:56;;;;;;;;;;;;;;;;;;4995222;28;19926;-62
2022/07/26 13:09:21;;;;;;;;;;;;;;;;;;4985605;28;19914;-62
2022/07/26 13:11:47;;;;;;;;;;;;;;;;;;4994399;28;19924;-62
2022/07/26 13:14:12;;;;;;;;;;;;;;;;;;4991656;28;19921;-62
2022/07/26 13:16:37;;;;;;;;;;;;;;;;;;4996590;28;19918;-62
2022/07/26 13:19:02;;;;;;;;;;;;;;;;;;4992515;28;19976;-61
2022/07/26 13:21:27;;;;;;;;;;;;;;;;;;4988391;28;20012;-62
2022/07/26 13:23:53;;;;;;;;;;;;;;;;;;4992864;28;19932;-61
2022/07/26 13:26:18;;;;;;;;;;;;;;;;;;4993247;28;19963;-61
2022/07/26 13:28:43;;;;;;;;;;;;;;;;;;4993196;28;19921;-62
2022/07/26 13:31:08;;;;;;;;;;;;;;;;;;4995680;28;20384;-62
2022/07/26 13:33:33;;;;;;;;;;;;;;;;;;4994934;28;20363;-62
2022/07/26 13:35:59;;;;;;;;;;;;;;;;;;4983910;28;20009;-61
2022/07/26 13:38:24;;;;;;;;;;;;;;;;;;4992851;28;19965;-63
2022/07/26 13:40:49;;;;;;;;;;;;;;;;;;4994122;28;20291;-62
2022/07/26 13:43:14;;;;;;;;;;;;;;;;;;4990800;28;19976;-63
2022/07/26 13:45:40;;;;;;;;;;;;;;;;;;4983643;28;19976;-62
2022/07/26 13:48:05;;;;;;;;;;;;;;;;;;4985960;28;19980;-62
2022/07/26 13:50:30;;;;;;;;;;;;;;;;;;4991571;28;20520;-63
2022/07/26 13:52:55;;;;;;;;;;;;;;;;;;4992003;28;19960;-62
2022/07/26 13:55:21;;;;;;;;;;;;;;;;;;4990926;28;19918;-63
2022/07/26 13:57:46;;;;;;;;;;;;;;;;;;4991594;28;19953;-62
2022/07/26 14:00:11;;;;;;;;;;;;;;;;;;4993240;28;19921;-63
2022/07/26 14:02:36;;;;;;;;;;;;;;;;;;4993894;28;19983;-62
2022/07/26 14:05:02;;;;;;;;;;;;;;;;;;4990272;28;20294;-63
2022/07/26 14:07:27;;;;;;;;;;;;;;;;;;4992158;28;20681;-63
2022/07/26 14:09:52;;;;;;;;;;;;;;;;;;4987809;28;20240;-63
2022/07/26 14:12:17;;;;;;;;;;;;;;;;;;4991988;28;20359;-63
2022/07/26 14:14:43;;;;;;;;;;;;;;;;;;4991837;28;19917;-63
2022/07/26 14:17:08;;;;;;;;;;;;;;;;;;4988301;28;19968;-63
2022/07/26 14:19:35;;;;;;;;;;;;;;;;;;4993396;28;19994;-63
2022/07/26 14:22:00;;;;;;;;;;;;;;;;;;4991661;28;19953;-63
2022/07/26 14:24:25;;;;;;;;;;;;;;;;;;4993023;28;20007;-63
2022/07/26 14:26:51;;;;;;;;;;;;;;;;;;4991538;28;19933;-63
2022/07/26 14:29:19;;;;;;;;;;;;;;;;;;4993090;28;20255;-63
2022/07/26 14:31:44;;;;;;;;;;;;;;;;;;4991806;28;19918;-63
2022/07/26 14:34:09;;;;;;;;;;;;;;;;;;4991371;28;20326;-63
2022/07/26 14:36:34;;;;;;;;;;;;;;;;;;4973067;28;19922;-63
2022/07/26 14:38:59;;;;;;;;;;;;;;;;;;4993476;28;19922;-62
2022/07/26 14:41:25;;;;;;;;;;;;;;;;;;4990250;28;19918;-64
2022/07/26 14:43:50;;;;;;;;;;;;;;;;;;4993027;28;19917;-63
2022/07/26 14:46:15;;;;;;;;;;;;;;;;;;4991305;28;19921;-63
2022/07/26 14:48:40;;;;;;;;;;;;;;;;;;4988840;28;19928;-63
2022/07/26 14:51:06;;;;;;;;;;;;;;;;;;4990768;28;19917;-62
2022/07/26 14:53:31;;;;;;;;;;;;;;;;;;4991403;28;19922;-63
2022/07/26 14:55:56;;;;;;;;;;;;;;;;;;4992699;28;19925;-63
2022/07/26 14:58:21;;;;;;;;;;;;;;;;;;4988172;28;19945;-63
2022/07/26 15:00:46;;;;;;;;;;;;;;;;;;4986286;28;19918;-63
2022/07/26 15:03:12;;;;;;;;;;;;;;;;;;4990932;28;20521;-63
2022/07/26 15:05:37;;;;;;;;;;;;;;;;;;4982001;28;19960;-63
2022/07/26 15:08:02;;;;;;;;;;;;;;;;;;4976975;28;19929;-63
2022/07/26 15:10:30;;;;;;;;;;;;;;;;;;4985589;28;20374;-64
2022/07/26 15:12:56;;;;;;;;;;;;;;;;;;4988894;28;19956;-63
2022/07/26 15:15:21;;;;;;;;;;;;;;;;;;4993292;28;19991;-63
2022/07/26 15:17:46;;;;;;;;;;;;;;;;;;4990643;28;19917;-64
2022/07/26 15:20:11;;;;;;;;;;;;;;;;;;4994827;28;19944;-63
2022/07/26 15:22:37;;;;;;;;;;;;;;;;;;4968914;28;19945;-63
2022/07/26 15:25:02;;;;;;;;;;;;;;;;;;4988134;28;20299;-63
2022/07/26 15:27:27;;;;;;;;;;;;;;;;;;4993483;28;20291;-63
2022/07/26 15:29:52;;;;;;;;;;;;;;;;;;4988165;28;19939;-63
2022/07/26 15:32:18;;;;;;;;;;;;;;;;;;4992208;28;19918;-63
2022/07/26 15:34:43;;;;;;;;;;;;;;;;;;4986649;28;19925;-63
2022/07/26 15:37:08;;;;;;;;;;;;;;;;;;4986581;28;19917;-63
2022/07/26 15:39:33;;;;;;;;;;;;;;;;;;4988788;28;19924;-63
2022/07/26 15:41:58;;;;;;;;;;;;;;;;;;4988944;28;19988;-63
2022/07/26 15:44:24;;;;;;;;;;;;;;;;;;4992580;28;20611;-63
2022/07/26 15:46:49;;;;;;;;;;;;;;;;;;4988530;28;20362;-63
2022/07/26 15:49:14;;;;;;;;;;;;;;;;;;4990138;28;20311;-63
2022/07/26 15:51:39;;;;;;;;;;;;;;;;;;4993834;28;20028;-63
2022/07/26 15:54:05;;;;;;;;;;;;;;;;;;4985864;28;20409;-64
2022/07/26 15:56:30;;;;;;;;;;;;;;;;;;4992035;28;19975;-63
2022/07/26 15:58:55;;;;;;;;;;;;;;;;;;4986914;28;20016;-63
2022/07/26 16:01:21;;;;;;;;;;;;;;;;;;4976998;28;19917;-63
2022/07/26 16:03:46;;;;;;;;;;;;;;;;;;4992535;28;19922;-62
2022/07/26 16:06:11;;;;;;;;;;;;;;;;;;4991184;28;19929;-63
2022/07/26 16:08:36;;;;;;;;;;;;;;;;;;4992628;28;20390;-63
2022/07/26 16:11:02;;;;;;;;;;;;;;;;;;4985069;28;19971;-63
2022/07/26 16:13:27;;;;;;;;;;;;;;;;;;4978897;28;19945;-63
2022/07/26 16:15:52;;;;;;;;;;;;;;;;;;4996056;28;19917;-62
2022/07/26 16:18:17;;;;;;;;;;;;;;;;;;4988907;28;19953;-64
2022/07/26 16:20:42;;;;;;;;;;;;;;;;;;4990233;28;19944;-62
2022/07/26 16:23:11;;;;;;;;;;;;;;;;;;4991680;28;19926;-62
2022/07/26 16:25:37;;;;;;;;;;;;;;;;;;4991490;28;19937;-63
2022/07/26 16:28:03;;;;;;;;;;;;;;;;;;4994069;28;19921;-63
2022/07/26 16:30:29;;;;;;;;;;;;;;;;;;4990445;28;19917;-62
2022/07/26 16:32:54;;;;;;;;;;;;;;;;;;4993889;28;19941;-63
2022/07/26 16:35:19;;;;;;;;;;;;;;;;;;4988774;28;19917;-63